sensor_id;sensor_type;location;lat;lon;timestamp;temperature;humidity
71084;DHT22;58741;52.672;13.548;2023-02-01T00:01:20;3.40;99.90
71084;DHT22;58741;52.672;13.548;2023-02-01T00:03:46;3.40;99.90
71084;DHT22;58741;52.672;13.548;2023-02-01T00:06:11;3.50;99.90
71084;DHT22;58741;52.672;13.548;2023-02-01T00:08:37;3.50;99.90
71084;DHT22;58741;52.672;13.548;2023-02-01T00:13:30;3.60;99.90
71084;DHT22;58741;52.672;13.548;2023-02-01T00:16:12;3.60;99.90
71084;DHT22;58741;52.672;13.548;2023-02-01T00:18:38;3.60;99.90
71084;DHT22;58741;52.672;13.548;2023-02-01T00:21:04;3.70;99.90
71084;DHT22;58741;52.672;13.548;2023-02-01T00:23:32;3.70;99.90
71084;DHT22;58741;52.672;13.548;2023-02-01T00:26:00;3.70;99.90
71084;DHT22;58741;52.672;13.548;2023-02-01T00:28:26;3.70;99.90
71084;DHT22;58741;52.672;13.548;2023-02-01T00:30:59;3.70;99.90
71084;DHT22;58741;52.672;13.548;2023-02-01T00:33:25;3.70;99.90
71084;DHT22;58741;52.672;13.548;2023-02-01T00:35:55;3.70;99.90
71084;DHT22;58741;52.672;13.548;2023-02-01T00:38:21;3.70;99.90
71084;DHT22;58741;52.672;13.548;2023-02-01T00:40:46;3.70;99.90
71084;DHT22;58741;52.672;13.548;2023-02-01T00:43:12;3.70;99.90
71084;DHT22;58741;52.672;13.548;2023-02-01T00:45:37;3.60;99.90
71084;DHT22;58741;52.672;13.548;2023-02-01T00:48:03;3.70;99.90
71084;DHT22;58741;52.672;13.548;2023-02-01T00:50:29;3.70;99.90
71084;DHT22;58741;52.672;13.548;2023-02-01T00:52:55;3.70;99.90
71084;DHT22;58741;52.672;13.548;2023-02-01T00:55:20;3.80;99.90
71084;DHT22;58741;52.672;13.548;2023-02-01T00:57:46;3.80;99.90
71084;DHT22;58741;52.672;13.548;2023-02-01T01:00:12;3.80;99.90
71084;DHT22;58741;52.672;13.548;2023-02-01T01:02:38;3.80;99.90
71084;DHT22;58741;52.672;13.548;2023-02-01T01:05:03;3.80;99.90
71084;DHT22;58741;52.672;13.548;2023-02-01T01:07:29;3.90;99.90
71084;DHT22;58741;52.672;13.548;2023-02-01T01:09:54;3.80;99.90
71084;DHT22;58741;52.672;13.548;2023-02-01T01:12:20;3.90;99.90
71084;DHT22;58741;52.672;13.548;2023-02-01T01:14:46;3.90;99.90
71084;DHT22;58741;52.672;13.548;2023-02-01T01:17:11;3.90;99.90
71084;DHT22;58741;52.672;13.548;2023-02-01T01:19:37;3.90;99.90
71084;DHT22;58741;52.672;13.548;2023-02-01T01:22:03;3.90;99.90
71084;DHT22;58741;52.672;13.548;2023-02-01T01:24:28;3.90;99.90
71084;DHT22;58741;52.672;13.548;2023-02-01T01:26:54;3.90;99.90
71084;DHT22;58741;52.672;13.548;2023-02-01T01:29:19;3.90;99.90
71084;DHT22;58741;52.672;13.548;2023-02-01T01:31:45;3.90;99.90
71084;DHT22;58741;52.672;13.548;2023-02-01T01:34:10;3.90;99.90
71084;DHT22;58741;52.672;13.548;2023-02-01T01:36:36;3.90;99.90
71084;DHT22;58741;52.672;13.548;2023-02-01T01:39:02;3.80;99.90
71084;DHT22;58741;52.672;13.548;2023-02-01T01:41:31;3.80;99.90
71084;DHT22;58741;52.672;13.548;2023-02-01T01:44:04;3.80;99.90
71084;DHT22;58741;52.672;13.548;2023-02-01T01:46:33;3.80;99.90
71084;DHT22;58741;52.672;13.548;2023-02-01T01:51:42;3.70;99.90
71084;DHT22;58741;52.672;13.548;2023-02-01T01:54:31;3.70;99.90
71084;DHT22;58741;52.672;13.548;2023-02-01T01:57:03;3.70;99.90
71084;DHT22;58741;52.672;13.548;2023-02-01T01:59:31;3.70;99.90
71084;DHT22;58741;52.672;13.548;2023-02-01T02:01:57;3.70;99.90
71084;DHT22;58741;52.672;13.548;2023-02-01T02:04:23;3.70;99.90
71084;DHT22;58741;52.672;13.548;2023-02-01T02:07:00;3.70;99.90
71084;DHT22;58741;52.672;13.548;2023-02-01T02:09:26;3.80;99.90
71084;DHT22;58741;52.672;13.548;2023-02-01T02:11:52;3.80;99.90
71084;DHT22;58741;52.672;13.548;2023-02-01T02:14:20;3.80;99.90
71084;DHT22;58741;52.672;13.548;2023-02-01T02:25:43;3.80;99.90
71084;DHT22;58741;52.672;13.548;2023-02-01T02:36:32;3.80;99.90
71084;DHT22;58741;52.672;13.548;2023-02-01T02:39:05;3.80;99.90
71084;DHT22;58741;52.672;13.548;2023-02-01T02:41:57;3.80;99.90
71084;DHT22;58741;52.672;13.548;2023-02-01T02:45:03;3.80;99.90
71084;DHT22;58741;52.672;13.548;2023-02-01T02:47:57;3.80;99.90
71084;DHT22;58741;52.672;13.548;2023-02-01T02:50:34;3.80;99.90
71084;DHT22;58741;52.672;13.548;2023-02-01T02:56:20;3.80;99.90
71084;DHT22;58741;52.672;13.548;2023-02-01T02:59:06;3.80;99.90
71084;DHT22;58741;52.672;13.548;2023-02-01T03:01:51;3.70;99.90
71084;DHT22;58741;52.672;13.548;2023-02-01T03:04:36;3.70;99.90
71084;DHT22;58741;52.672;13.548;2023-02-01T03:10:17;3.70;99.90
71084;DHT22;58741;52.672;13.548;2023-02-01T03:12:45;3.60;99.90
71084;DHT22;58741;52.672;13.548;2023-02-01T03:16:09;3.60;99.90
71084;DHT22;58741;52.672;13.548;2023-02-01T03:18:16;3.60;99.90
71084;DHT22;58741;52.672;13.548;2023-02-01T03:20:46;3.60;99.90
71084;DHT22;58741;52.672;13.548;2023-02-01T03:23:15;3.60;99.90
71084;DHT22;58741;52.672;13.548;2023-02-01T03:25:42;3.60;99.90
71084;DHT22;58741;52.672;13.548;2023-02-01T03:28:09;3.60;99.90
71084;DHT22;58741;52.672;13.548;2023-02-01T03:30:41;3.60;99.90
71084;DHT22;58741;52.672;13.548;2023-02-01T03:33:11;3.50;99.90
71084;DHT22;58741;52.672;13.548;2023-02-01T03:36:09;3.60;99.90
71084;DHT22;58741;52.672;13.548;2023-02-01T03:39:04;3.50;99.90
71084;DHT22;58741;52.672;13.548;2023-02-01T03:41:37;3.60;99.90
71084;DHT22;58741;52.672;13.548;2023-02-01T03:46:49;3.50;99.90
71084;DHT22;58741;52.672;13.548;2023-02-01T03:52:05;3.50;99.90
71084;DHT22;58741;52.672;13.548;2023-02-01T03:54:32;3.50;99.90
71084;DHT22;58741;52.672;13.548;2023-02-01T03:57:02;3.50;99.90
71084;DHT22;58741;52.672;13.548;2023-02-01T03:59:28;3.50;99.90
71084;DHT22;58741;52.672;13.548;2023-02-01T04:01:54;3.60;99.90
71084;DHT22;58741;52.672;13.548;2023-02-01T04:04:19;3.50;99.90
71084;DHT22;58741;52.672;13.548;2023-02-01T04:06:48;3.50;99.90
71084;DHT22;58741;52.672;13.548;2023-02-01T04:09:13;3.50;99.90
71084;DHT22;58741;52.672;13.548;2023-02-01T04:11:39;3.50;99.90
71084;DHT22;58741;52.672;13.548;2023-02-01T04:14:05;3.50;99.90
71084;DHT22;58741;52.672;13.548;2023-02-01T04:16:31;3.50;99.90
71084;DHT22;58741;52.672;13.548;2023-02-01T04:18:57;3.60;99.90
71084;DHT22;58741;52.672;13.548;2023-02-01T04:21:25;3.60;99.90
71084;DHT22;58741;52.672;13.548;2023-02-01T04:23:50;3.50;99.90
71084;DHT22;58741;52.672;13.548;2023-02-01T04:26:16;3.60;99.90
71084;DHT22;58741;52.672;13.548;2023-02-01T04:28:42;3.60;99.90
71084;DHT22;58741;52.672;13.548;2023-02-01T04:31:08;3.60;99.90
71084;DHT22;58741;52.672;13.548;2023-02-01T04:33:33;3.60;99.90
71084;DHT22;58741;52.672;13.548;2023-02-01T04:35:59;3.60;99.90
71084;DHT22;58741;52.672;13.548;2023-02-01T04:38:25;3.60;99.90
71084;DHT22;58741;52.672;13.548;2023-02-01T04:40:50;3.70;99.90
71084;DHT22;58741;52.672;13.548;2023-02-01T04:43:17;3.70;99.90
71084;DHT22;58741;52.672;13.548;2023-02-01T04:45:47;3.70;99.90
71084;DHT22;58741;52.672;13.548;2023-02-01T04:48:13;3.70;99.90
71084;DHT22;58741;52.672;13.548;2023-02-01T04:50:39;3.70;99.90
71084;DHT22;58741;52.672;13.548;2023-02-01T04:53:04;3.80;99.90
71084;DHT22;58741;52.672;13.548;2023-02-01T04:55:30;3.80;99.90
71084;DHT22;58741;52.672;13.548;2023-02-01T04:57:56;3.80;99.90
71084;DHT22;58741;52.672;13.548;2023-02-01T05:00:22;3.90;99.90
71084;DHT22;58741;52.672;13.548;2023-02-01T05:02:47;3.90;99.90
71084;DHT22;58741;52.672;13.548;2023-02-01T05:05:13;3.90;99.90
71084;DHT22;58741;52.672;13.548;2023-02-01T05:07:39;3.90;99.90
71084;DHT22;58741;52.672;13.548;2023-02-01T05:10:04;3.90;99.90
71084;DHT22;58741;52.672;13.548;2023-02-01T05:12:30;4.00;99.90
71084;DHT22;58741;52.672;13.548;2023-02-01T05:15:14;4.00;99.90
71084;DHT22;58741;52.672;13.548;2023-02-01T05:17:40;4.00;99.90
71084;DHT22;58741;52.672;13.548;2023-02-01T05:20:07;4.10;99.90
71084;DHT22;58741;52.672;13.548;2023-02-01T05:22:33;4.10;99.90
71084;DHT22;58741;52.672;13.548;2023-02-01T05:24:58;4.10;99.90
71084;DHT22;58741;52.672;13.548;2023-02-01T05:27:24;4.10;99.90
71084;DHT22;58741;52.672;13.548;2023-02-01T05:29:49;4.10;99.90
71084;DHT22;58741;52.672;13.548;2023-02-01T05:32:15;4.20;99.90
71084;DHT22;58741;52.672;13.548;2023-02-01T05:34:40;4.20;99.90
71084;DHT22;58741;52.672;13.548;2023-02-01T05:37:06;4.20;99.90
71084;DHT22;58741;52.672;13.548;2023-02-01T05:39:31;4.20;99.90
71084;DHT22;58741;52.672;13.548;2023-02-01T05:41:57;4.30;99.90
71084;DHT22;58741;52.672;13.548;2023-02-01T05:44:23;4.30;99.90
71084;DHT22;58741;52.672;13.548;2023-02-01T05:46:48;4.30;99.90
71084;DHT22;58741;52.672;13.548;2023-02-01T05:49:14;4.30;99.90
71084;DHT22;58741;52.672;13.548;2023-02-01T05:51:39;4.40;99.90
71084;DHT22;58741;52.672;13.548;2023-02-01T05:54:05;4.40;99.90
71084;DHT22;58741;52.672;13.548;2023-02-01T05:56:30;4.40;99.90
71084;DHT22;58741;52.672;13.548;2023-02-01T05:58:56;4.40;99.90
71084;DHT22;58741;52.672;13.548;2023-02-01T06:01:21;4.40;99.90
71084;DHT22;58741;52.672;13.548;2023-02-01T06:03:47;4.40;99.90
71084;DHT22;58741;52.672;13.548;2023-02-01T06:06:12;4.40;99.90
71084;DHT22;58741;52.672;13.548;2023-02-01T06:08:38;4.50;99.90
71084;DHT22;58741;52.672;13.548;2023-02-01T06:11:05;4.50;99.90
71084;DHT22;58741;52.672;13.548;2023-02-01T06:13:32;4.50;99.90
71084;DHT22;58741;52.672;13.548;2023-02-01T06:15:57;4.50;99.90
71084;DHT22;58741;52.672;13.548;2023-02-01T06:18:24;4.50;99.90
71084;DHT22;58741;52.672;13.548;2023-02-01T06:20:54;4.50;99.90
71084;DHT22;58741;52.672;13.548;2023-02-01T06:23:20;4.50;99.90
71084;DHT22;58741;52.672;13.548;2023-02-01T06:25:52;4.50;99.90
71084;DHT22;58741;52.672;13.548;2023-02-01T06:28:18;4.50;99.90
71084;DHT22;58741;52.672;13.548;2023-02-01T06:30:44;4.40;99.90
71084;DHT22;58741;52.672;13.548;2023-02-01T06:33:13;4.40;99.90
71084;DHT22;58741;52.672;13.548;2023-02-01T06:35:41;4.40;99.90
71084;DHT22;58741;52.672;13.548;2023-02-01T06:38:07;4.30;99.90
71084;DHT22;58741;52.672;13.548;2023-02-01T06:40:33;4.30;99.90
71084;DHT22;58741;52.672;13.548;2023-02-01T06:42:59;4.20;99.90
71084;DHT22;58741;52.672;13.548;2023-02-01T06:45:24;4.20;99.90
71084;DHT22;58741;52.672;13.548;2023-02-01T06:47:50;4.20;99.90
71084;DHT22;58741;52.672;13.548;2023-02-01T06:50:16;4.20;99.90
71084;DHT22;58741;52.672;13.548;2023-02-01T06:52:41;4.10;99.90
71084;DHT22;58741;52.672;13.548;2023-02-01T06:55:07;4.10;99.90
71084;DHT22;58741;52.672;13.548;2023-02-01T06:57:33;4.10;99.90
71084;DHT22;58741;52.672;13.548;2023-02-01T06:59:59;4.10;99.90
71084;DHT22;58741;52.672;13.548;2023-02-01T07:02:25;4.10;99.90
71084;DHT22;58741;52.672;13.548;2023-02-01T07:04:50;4.10;99.90
71084;DHT22;58741;52.672;13.548;2023-02-01T07:07:16;4.10;99.90
71084;DHT22;58741;52.672;13.548;2023-02-01T07:09:44;4.00;99.90
71084;DHT22;58741;52.672;13.548;2023-02-01T07:12:10;4.00;99.90
71084;DHT22;58741;52.672;13.548;2023-02-01T07:14:36;4.00;99.90
71084;DHT22;58741;52.672;13.548;2023-02-01T07:17:01;4.00;99.90
71084;DHT22;58741;52.672;13.548;2023-02-01T07:19:27;4.00;99.90
71084;DHT22;58741;52.672;13.548;2023-02-01T07:21:52;4.00;99.90
71084;DHT22;58741;52.672;13.548;2023-02-01T07:24:18;4.00;99.90
71084;DHT22;58741;52.672;13.548;2023-02-01T07:26:43;4.00;99.90
71084;DHT22;58741;52.672;13.548;2023-02-01T07:29:09;4.00;99.90
71084;DHT22;58741;52.672;13.548;2023-02-01T07:31:35;4.00;99.90
71084;DHT22;58741;52.672;13.548;2023-02-01T07:34:00;4.00;99.90
71084;DHT22;58741;52.672;13.548;2023-02-01T07:36:28;4.00;99.90
71084;DHT22;58741;52.672;13.548;2023-02-01T07:38:53;4.00;99.90
71084;DHT22;58741;52.672;13.548;2023-02-01T07:41:20;4.00;99.90
71084;DHT22;58741;52.672;13.548;2023-02-01T07:43:45;4.00;99.90
71084;DHT22;58741;52.672;13.548;2023-02-01T07:46:11;4.10;99.90
71084;DHT22;58741;52.672;13.548;2023-02-01T07:48:37;4.10;99.90
71084;DHT22;58741;52.672;13.548;2023-02-01T07:51:09;4.10;99.90
71084;DHT22;58741;52.672;13.548;2023-02-01T07:53:35;4.10;99.90
71084;DHT22;58741;52.672;13.548;2023-02-01T07:56:01;4.10;99.90
71084;DHT22;58741;52.672;13.548;2023-02-01T07:58:27;4.10;99.90
71084;DHT22;58741;52.672;13.548;2023-02-01T08:00:54;4.10;99.90
71084;DHT22;58741;52.672;13.548;2023-02-01T08:03:38;4.10;99.90
71084;DHT22;58741;52.672;13.548;2023-02-01T08:06:05;4.10;99.90
71084;DHT22;58741;52.672;13.548;2023-02-01T08:08:31;4.10;99.90
71084;DHT22;58741;52.672;13.548;2023-02-01T08:11:02;4.10;99.90
71084;DHT22;58741;52.672;13.548;2023-02-01T08:13:28;4.00;99.90
71084;DHT22;58741;52.672;13.548;2023-02-01T08:15:58;4.00;99.90
71084;DHT22;58741;52.672;13.548;2023-02-01T08:18:24;4.00;99.90
71084;DHT22;58741;52.672;13.548;2023-02-01T08:20:50;4.00;99.90
71084;DHT22;58741;52.672;13.548;2023-02-01T08:23:16;3.90;99.90
71084;DHT22;58741;52.672;13.548;2023-02-01T08:25:43;3.90;99.90
71084;DHT22;58741;52.672;13.548;2023-02-01T08:28:09;3.90;99.90
71084;DHT22;58741;52.672;13.548;2023-02-01T08:30:37;3.80;99.90
71084;DHT22;58741;52.672;13.548;2023-02-01T08:33:04;3.80;99.90
71084;DHT22;58741;52.672;13.548;2023-02-01T08:35:31;3.70;99.90
71084;DHT22;58741;52.672;13.548;2023-02-01T08:37:57;3.70;99.90
71084;DHT22;58741;52.672;13.548;2023-02-01T08:40:22;3.60;99.90
71084;DHT22;58741;52.672;13.548;2023-02-01T08:42:48;3.60;99.90
71084;DHT22;58741;52.672;13.548;2023-02-01T08:45:22;3.60;99.90
71084;DHT22;58741;52.672;13.548;2023-02-01T08:47:53;3.60;99.90
71084;DHT22;58741;52.672;13.548;2023-02-01T08:50:20;3.60;99.90
71084;DHT22;58741;52.672;13.548;2023-02-01T08:52:46;3.50;99.90
71084;DHT22;58741;52.672;13.548;2023-02-01T08:55:12;3.50;99.90
71084;DHT22;58741;52.672;13.548;2023-02-01T08:57:38;3.40;99.90
71084;DHT22;58741;52.672;13.548;2023-02-01T09:00:06;3.40;99.90
71084;DHT22;58741;52.672;13.548;2023-02-01T09:02:34;3.40;99.90
71084;DHT22;58741;52.672;13.548;2023-02-01T09:04:59;3.40;99.90
71084;DHT22;58741;52.672;13.548;2023-02-01T09:07:25;3.40;99.90
71084;DHT22;58741;52.672;13.548;2023-02-01T09:09:50;3.40;99.90
71084;DHT22;58741;52.672;13.548;2023-02-01T09:12:16;3.40;99.90
71084;DHT22;58741;52.672;13.548;2023-02-01T09:14:42;3.40;99.90
71084;DHT22;58741;52.672;13.548;2023-02-01T09:17:07;3.40;99.90
71084;DHT22;58741;52.672;13.548;2023-02-01T09:19:33;3.40;99.90
71084;DHT22;58741;52.672;13.548;2023-02-01T09:21:58;3.50;99.90
71084;DHT22;58741;52.672;13.548;2023-02-01T09:24:24;3.50;99.90
71084;DHT22;58741;52.672;13.548;2023-02-01T09:26:50;3.50;99.90
71084;DHT22;58741;52.672;13.548;2023-02-01T09:29:16;3.50;99.90
71084;DHT22;58741;52.672;13.548;2023-02-01T09:31:42;3.50;99.90
71084;DHT22;58741;52.672;13.548;2023-02-01T09:34:08;3.60;99.90
71084;DHT22;58741;52.672;13.548;2023-02-01T09:36:34;3.60;99.90
71084;DHT22;58741;52.672;13.548;2023-02-01T09:39:01;3.60;99.90
71084;DHT22;58741;52.672;13.548;2023-02-01T09:41:48;3.60;99.90
71084;DHT22;58741;52.672;13.548;2023-02-01T09:46:55;3.70;99.90
71084;DHT22;58741;52.672;13.548;2023-02-01T09:49:32;3.70;99.90
71084;DHT22;58741;52.672;13.548;2023-02-01T09:52:02;3.70;99.90
71084;DHT22;58741;52.672;13.548;2023-02-01T09:54:44;3.80;99.90
71084;DHT22;58741;52.672;13.548;2023-02-01T09:57:40;3.80;99.90
71084;DHT22;58741;52.672;13.548;2023-02-01T10:00:23;3.80;99.90
71084;DHT22;58741;52.672;13.548;2023-02-01T10:02:50;3.80;99.90
71084;DHT22;58741;52.672;13.548;2023-02-01T10:05:43;3.90;99.90
71084;DHT22;58741;52.672;13.548;2023-02-01T10:08:15;3.90;99.90
71084;DHT22;58741;52.672;13.548;2023-02-01T10:10:48;3.90;99.90
71084;DHT22;58741;52.672;13.548;2023-02-01T10:13:34;3.90;99.90
71084;DHT22;58741;52.672;13.548;2023-02-01T10:16:31;4.00;99.90
71084;DHT22;58741;52.672;13.548;2023-02-01T10:22:09;4.00;99.90
71084;DHT22;58741;52.672;13.548;2023-02-01T10:24:40;4.00;99.90
71084;DHT22;58741;52.672;13.548;2023-02-01T10:27:13;4.00;99.90
71084;DHT22;58741;52.672;13.548;2023-02-01T10:29:43;4.00;99.90
71084;DHT22;58741;52.672;13.548;2023-02-01T10:32:14;4.00;99.90
71084;DHT22;58741;52.672;13.548;2023-02-01T10:34:41;4.00;99.90
71084;DHT22;58741;52.672;13.548;2023-02-01T10:37:27;4.00;99.90
71084;DHT22;58741;52.672;13.548;2023-02-01T10:39:59;4.00;99.90
71084;DHT22;58741;52.672;13.548;2023-02-01T10:42:28;4.00;99.90
71084;DHT22;58741;52.672;13.548;2023-02-01T10:44:56;4.00;99.90
71084;DHT22;58741;52.672;13.548;2023-02-01T10:47:23;4.00;99.90
71084;DHT22;58741;52.672;13.548;2023-02-01T10:55:25;4.10;99.90
71084;DHT22;58741;52.672;13.548;2023-02-01T10:57:59;4.10;99.90
71084;DHT22;58741;52.672;13.548;2023-02-01T11:00:26;4.10;99.90
71084;DHT22;58741;52.672;13.548;2023-02-01T11:02:53;4.20;99.90
71084;DHT22;58741;52.672;13.548;2023-02-01T11:05:20;4.20;99.90
71084;DHT22;58741;52.672;13.548;2023-02-01T11:07:53;4.20;99.90
71084;DHT22;58741;52.672;13.548;2023-02-01T11:10:41;4.30;99.90
71084;DHT22;58741;52.672;13.548;2023-02-01T11:13:15;4.30;99.90
71084;DHT22;58741;52.672;13.548;2023-02-01T11:15:54;4.30;99.90
71084;DHT22;58741;52.672;13.548;2023-02-01T11:18:27;4.40;99.90
71084;DHT22;58741;52.672;13.548;2023-02-01T11:20:53;4.50;99.90
71084;DHT22;58741;52.672;13.548;2023-02-01T11:23:24;4.60;99.90
71084;DHT22;58741;52.672;13.548;2023-02-01T11:25:53;4.70;99.90
71084;DHT22;58741;52.672;13.548;2023-02-01T11:28:22;4.70;99.90
71084;DHT22;58741;52.672;13.548;2023-02-01T11:30:51;4.70;99.90
71084;DHT22;58741;52.672;13.548;2023-02-01T11:33:19;4.80;99.90
71084;DHT22;58741;52.672;13.548;2023-02-01T11:35:47;4.80;99.90
71084;DHT22;58741;52.672;13.548;2023-02-01T11:38:28;4.80;99.90
71084;DHT22;58741;52.672;13.548;2023-02-01T11:40:54;4.90;99.90
71084;DHT22;58741;52.672;13.548;2023-02-01T11:43:28;4.90;99.90
71084;DHT22;58741;52.672;13.548;2023-02-01T11:46:01;4.90;99.90
71084;DHT22;58741;52.672;13.548;2023-02-01T11:48:32;5.00;99.90
71084;DHT22;58741;52.672;13.548;2023-02-01T11:51:37;5.00;99.90
71084;DHT22;58741;52.672;13.548;2023-02-01T11:57:03;5.10;99.90
71084;DHT22;58741;52.672;13.548;2023-02-01T11:59:55;5.10;99.90
71084;DHT22;58741;52.672;13.548;2023-02-01T12:16:21;5.40;99.90
71084;DHT22;58741;52.672;13.548;2023-02-01T12:24:29;5.60;99.90
71084;DHT22;58741;52.672;13.548;2023-02-01T12:27:01;5.60;99.90
71084;DHT22;58741;52.672;13.548;2023-02-01T12:35:12;5.60;99.90
71084;DHT22;58741;52.672;13.548;2023-02-01T12:38:05;5.60;99.90
71084;DHT22;58741;52.672;13.548;2023-02-01T12:40:49;5.60;99.90
71084;DHT22;58741;52.672;13.548;2023-02-01T12:43:22;5.50;99.90
71084;DHT22;58741;52.672;13.548;2023-02-01T12:45:58;5.50;99.90
71084;DHT22;58741;52.672;13.548;2023-02-01T12:48:58;5.40;99.90
71084;DHT22;58741;52.672;13.548;2023-02-01T12:51:37;5.40;99.90
71084;DHT22;58741;52.672;13.548;2023-02-01T12:56:53;4.90;99.90
71084;DHT22;58741;52.672;13.548;2023-02-01T12:59:28;4.80;99.90
71084;DHT22;58741;52.672;13.548;2023-02-01T13:02:04;4.60;99.90
71084;DHT22;58741;52.672;13.548;2023-02-01T13:05:27;4.50;99.90
71084;DHT22;58741;52.672;13.548;2023-02-01T13:07:30;4.40;99.90
71084;DHT22;58741;52.672;13.548;2023-02-01T13:10:15;4.30;99.90
71084;DHT22;58741;52.672;13.548;2023-02-01T13:13:10;4.20;99.90
71084;DHT22;58741;52.672;13.548;2023-02-01T13:15:42;4.10;99.90
71084;DHT22;58741;52.672;13.548;2023-02-01T13:18:16;4.10;99.90
71084;DHT22;58741;52.672;13.548;2023-02-01T13:20:56;4.10;99.90
71084;DHT22;58741;52.672;13.548;2023-02-01T13:23:45;4.10;99.90
71084;DHT22;58741;52.672;13.548;2023-02-01T13:26:11;4.10;99.90
71084;DHT22;58741;52.672;13.548;2023-02-01T13:29:12;4.10;99.90
71084;DHT22;58741;52.672;13.548;2023-02-01T13:37:34;4.10;99.90
71084;DHT22;58741;52.672;13.548;2023-02-01T13:40:18;4.10;99.90
71084;DHT22;58741;52.672;13.548;2023-02-01T13:42:56;4.10;99.90
71084;DHT22;58741;52.672;13.548;2023-02-01T13:45:26;4.00;99.90
71084;DHT22;58741;52.672;13.548;2023-02-01T13:47:55;4.00;99.90
71084;DHT22;58741;52.672;13.548;2023-02-01T13:50:34;4.10;99.90
71084;DHT22;58741;52.672;13.548;2023-02-01T13:53:17;4.10;99.90
71084;DHT22;58741;52.672;13.548;2023-02-01T13:55:45;4.10;99.90
71084;DHT22;58741;52.672;13.548;2023-02-01T13:58:20;4.10;99.90
71084;DHT22;58741;52.672;13.548;2023-02-01T14:00:48;4.00;99.90
71084;DHT22;58741;52.672;13.548;2023-02-01T14:03:42;4.10;99.90
71084;DHT22;58741;52.672;13.548;2023-02-01T14:09:16;4.10;99.90
71084;DHT22;58741;52.672;13.548;2023-02-01T14:11:53;4.10;99.90
71084;DHT22;58741;52.672;13.548;2023-02-01T14:19:32;4.10;99.90
71084;DHT22;58741;52.672;13.548;2023-02-01T14:22:00;4.20;99.90
71084;DHT22;58741;52.672;13.548;2023-02-01T14:24:36;4.20;99.90
71084;DHT22;58741;52.672;13.548;2023-02-01T14:27:19;4.20;99.90
71084;DHT22;58741;52.672;13.548;2023-02-01T14:29:52;4.20;99.90
71084;DHT22;58741;52.672;13.548;2023-02-01T14:32:26;4.20;99.90
71084;DHT22;58741;52.672;13.548;2023-02-01T14:34:58;4.20;99.90
71084;DHT22;58741;52.672;13.548;2023-02-01T14:37:29;4.20;99.90
71084;DHT22;58741;52.672;13.548;2023-02-01T14:40:01;4.30;99.90
71084;DHT22;58741;52.672;13.548;2023-02-01T14:42:46;4.30;99.90
71084;DHT22;58741;52.672;13.548;2023-02-01T14:55:59;4.50;99.90
71084;DHT22;58741;52.672;13.548;2023-02-01T14:58:47;4.50;99.90
71084;DHT22;58741;52.672;13.548;2023-02-01T15:01:23;4.50;99.90
71084;DHT22;58741;52.672;13.548;2023-02-01T15:06:42;4.60;99.90
71084;DHT22;58741;52.672;13.548;2023-02-01T15:09:29;4.60;99.90
71084;DHT22;58741;52.672;13.548;2023-02-01T15:14:41;4.60;99.90
71084;DHT22;58741;52.672;13.548;2023-02-01T15:17:32;4.60;99.90
71084;DHT22;58741;52.672;13.548;2023-02-01T15:20:16;4.60;99.90
71084;DHT22;58741;52.672;13.548;2023-02-01T15:22:51;4.60;99.90
71084;DHT22;58741;52.672;13.548;2023-02-01T15:25:20;4.60;99.90
71084;DHT22;58741;52.672;13.548;2023-02-01T15:27:46;4.60;99.90
71084;DHT22;58741;52.672;13.548;2023-02-01T15:30:21;4.60;99.90
71084;DHT22;58741;52.672;13.548;2023-02-01T15:32:48;4.60;99.90
71084;DHT22;58741;52.672;13.548;2023-02-01T15:40:58;4.60;99.90
71084;DHT22;58741;52.672;13.548;2023-02-01T15:43:25;4.60;99.90
71084;DHT22;58741;52.672;13.548;2023-02-01T15:45:51;4.60;99.90
71084;DHT22;58741;52.672;13.548;2023-02-01T15:48:23;4.50;99.90
71084;DHT22;58741;52.672;13.548;2023-02-01T15:50:50;4.50;99.90
71084;DHT22;58741;52.672;13.548;2023-02-01T15:53:20;4.50;99.90
71084;DHT22;58741;52.672;13.548;2023-02-01T15:55:52;4.40;99.90
71084;DHT22;58741;52.672;13.548;2023-02-01T15:58:20;4.40;99.90
71084;DHT22;58741;52.672;13.548;2023-02-01T16:00:53;4.40;99.90
71084;DHT22;58741;52.672;13.548;2023-02-01T16:03:28;4.30;99.90
71084;DHT22;58741;52.672;13.548;2023-02-01T16:05:59;4.30;99.90
71084;DHT22;58741;52.672;13.548;2023-02-01T16:08:28;4.30;99.90
71084;DHT22;58741;52.672;13.548;2023-02-01T16:13:35;4.10;99.90
71084;DHT22;58741;52.672;13.548;2023-02-01T16:16:02;4.10;99.90
71084;DHT22;58741;52.672;13.548;2023-02-01T16:18:27;4.00;99.90
71084;DHT22;58741;52.672;13.548;2023-02-01T16:20:53;4.00;99.90
71084;DHT22;58741;52.672;13.548;2023-02-01T16:23:18;3.90;99.90
71084;DHT22;58741;52.672;13.548;2023-02-01T16:25:46;3.90;99.90
71084;DHT22;58741;52.672;13.548;2023-02-01T16:28:12;3.90;99.90
71084;DHT22;58741;52.672;13.548;2023-02-01T16:30:37;3.80;99.90
71084;DHT22;58741;52.672;13.548;2023-02-01T16:33:03;3.80;99.90
71084;DHT22;58741;52.672;13.548;2023-02-01T16:35:34;3.70;99.90
71084;DHT22;58741;52.672;13.548;2023-02-01T16:38:12;3.60;99.90
71084;DHT22;58741;52.672;13.548;2023-02-01T16:40:42;3.50;99.90
71084;DHT22;58741;52.672;13.548;2023-02-01T16:43:12;3.50;99.90
71084;DHT22;58741;52.672;13.548;2023-02-01T16:45:39;3.40;99.90
71084;DHT22;58741;52.672;13.548;2023-02-01T16:48:06;3.40;99.90
71084;DHT22;58741;52.672;13.548;2023-02-01T16:50:32;3.40;99.90
71084;DHT22;58741;52.672;13.548;2023-02-01T16:52:58;3.30;99.90
71084;DHT22;58741;52.672;13.548;2023-02-01T16:55:24;3.30;99.90
71084;DHT22;58741;52.672;13.548;2023-02-01T16:57:51;3.40;99.90
71084;DHT22;58741;52.672;13.548;2023-02-01T17:00:17;3.30;99.90
71084;DHT22;58741;52.672;13.548;2023-02-01T17:02:43;3.30;99.90
71084;DHT22;58741;52.672;13.548;2023-02-01T17:05:11;3.30;99.90
71084;DHT22;58741;52.672;13.548;2023-02-01T17:07:38;3.30;99.90
71084;DHT22;58741;52.672;13.548;2023-02-01T17:10:05;3.30;99.90
71084;DHT22;58741;52.672;13.548;2023-02-01T17:12:32;3.20;99.90
71084;DHT22;58741;52.672;13.548;2023-02-01T17:14:59;3.20;99.90
71084;DHT22;58741;52.672;13.548;2023-02-01T17:17:33;3.20;99.90
71084;DHT22;58741;52.672;13.548;2023-02-01T17:20:00;3.20;99.90
71084;DHT22;58741;52.672;13.548;2023-02-01T17:22:26;3.20;99.90
71084;DHT22;58741;52.672;13.548;2023-02-01T17:24:51;3.20;99.90
71084;DHT22;58741;52.672;13.548;2023-02-01T17:27:17;3.10;99.90
71084;DHT22;58741;52.672;13.548;2023-02-01T17:29:43;3.10;99.90
71084;DHT22;58741;52.672;13.548;2023-02-01T17:32:22;3.20;99.90
71084;DHT22;58741;52.672;13.548;2023-02-01T17:34:49;3.10;99.90
71084;DHT22;58741;52.672;13.548;2023-02-01T17:37:24;3.10;99.90
71084;DHT22;58741;52.672;13.548;2023-02-01T17:39:50;3.10;99.90
71084;DHT22;58741;52.672;13.548;2023-02-01T17:42:19;3.20;99.90
71084;DHT22;58741;52.672;13.548;2023-02-01T17:44:44;3.10;99.90